sensor_id;sensor_type;location;lat;lon;timestamp;pressure;altitude;pressure_sealevel;temperature;humidity
78309;BME280;67566;42.022;21.356;2023-04-01T00:00:32;97721.19;;;11.83;46.62
78309;BME280;67566;42.022;21.356;2023-04-01T00:02:57;97711.72;;;11.86;46.56
78309;BME280;67566;42.022;21.356;2023-04-01T00:05:23;97711.72;;;11.86;46.83
78309;BME280;67566;42.022;21.356;2023-04-01T00:07:51;97715.19;;;11.86;46.75
78309;BME280;67566;42.022;21.356;2023-04-01T00:10:17;97725.41;;;11.84;46.27
78309;BME280;67566;42.022;21.356;2023-04-01T00:12:43;97722.28;;;11.82;46.64
78309;BME280;67566;42.022;21.356;2023-04-01T00:15:10;97721.50;;;11.82;46.42
78309;BME280;67566;42.022;21.356;2023-04-01T00:17:36;97729.84;;;11.80;46.57
78309;BME280;67566;42.022;21.356;2023-04-01T00:20:04;97723.41;;;11.81;46.28
78309;BME280;67566;42.022;21.356;2023-04-01T00:22:29;97723.41;;;11.81;46.86
78309;BME280;67566;42.022;21.356;2023-04-01T00:24:55;97713.84;;;11.80;47.06
78309;BME280;67566;42.022;21.356;2023-04-01T00:27:20;97717.59;;;11.79;46.91
78309;BME280;67566;42.022;21.356;2023-04-01T00:29:46;97726.06;;;11.81;46.46
78309;BME280;67566;42.022;21.356;2023-04-01T00:32:13;97717.28;;;11.81;46.69
78309;BME280;67566;42.022;21.356;2023-04-01T00:34:39;97710.41;;;11.80;46.46
78309;BME280;67566;42.022;21.356;2023-04-01T00:37:05;97697.41;;;11.78;46.96
78309;BME280;67566;42.022;21.356;2023-04-01T00:39:32;97702.28;;;11.76;46.98
78309;BME280;67566;42.022;21.356;2023-04-01T00:41:59;97693.81;;;11.74;46.93
78309;BME280;67566;42.022;21.356;2023-04-01T00:44:30;97687.25;;;11.71;47.68
78309;BME280;67566;42.022;21.356;2023-04-01T00:46:56;97691.81;;;11.71;47.13
78309;BME280;67566;42.022;21.356;2023-04-01T00:49:25;97682.25;;;11.70;47.53
78309;BME280;67566;42.022;21.356;2023-04-01T00:51:55;97685.56;;;11.67;47.65
78309;BME280;67566;42.022;21.356;2023-04-01T00:54:22;97687.34;;;11.63;48.00
78309;BME280;67566;42.022;21.356;2023-04-01T00:56:54;97686.59;;;11.62;48.20
78309;BME280;67566;42.022;21.356;2023-04-01T00:59:44;97675.59;;;11.64;48.14
78309;BME280;67566;42.022;21.356;2023-04-01T01:02:12;97680.94;;;11.64;47.45
78309;BME280;67566;42.022;21.356;2023-04-01T01:04:38;97674.34;;;11.61;47.54
78309;BME280;67566;42.022;21.356;2023-04-01T01:12:23;97675.22;;;11.65;47.45
78309;BME280;67566;42.022;21.356;2023-04-01T01:15:14;97668.38;;;11.64;47.56
78309;BME280;67566;42.022;21.356;2023-04-01T01:17:54;97664.56;;;11.65;47.28
78309;BME280;67566;42.022;21.356;2023-04-01T01:20:59;97670.06;;;11.69;47.63
78309;BME280;67566;42.022;21.356;2023-04-01T01:30:06;97658.78;;;11.63;47.51
78309;BME280;67566;42.022;21.356;2023-04-01T01:38:01;97664.13;;;11.63;47.83
78309;BME280;67566;42.022;21.356;2023-04-01T01:40:29;97669.91;;;11.65;47.96
78309;BME280;67566;42.022;21.356;2023-04-01T01:43:00;97650.03;;;11.63;49.26
78309;BME280;67566;42.022;21.356;2023-04-01T01:45:30;97642.44;;;11.52;49.62
78309;BME280;67566;42.022;21.356;2023-04-01T01:47:59;97643.56;;;11.51;49.35
78309;BME280;67566;42.022;21.356;2023-04-01T01:50:26;97652.53;;;11.47;50.07
78309;BME280;67566;42.022;21.356;2023-04-01T01:53:06;97644.09;;;11.45;49.46
78309;BME280;67566;42.022;21.356;2023-04-01T01:55:35;97636.09;;;11.45;49.23
78309;BME280;67566;42.022;21.356;2023-04-01T01:58:09;97629.97;;;11.44;49.68
78309;BME280;67566;42.022;21.356;2023-04-01T02:00:38;97635.31;;;11.44;49.17
78309;BME280;67566;42.022;21.356;2023-04-01T02:03:05;97641.75;;;11.43;49.65
78309;BME280;67566;42.022;21.356;2023-04-01T02:05:31;97640.06;;;11.39;50.25
78309;BME280;67566;42.022;21.356;2023-04-01T02:08:02;97639.19;;;11.34;49.98
78309;BME280;67566;42.022;21.356;2023-04-01T02:10:33;97642.38;;;11.28;50.85
78309;BME280;67566;42.022;21.356;2023-04-01T02:13:01;97633.50;;;11.24;51.54
78309;BME280;67566;42.022;21.356;2023-04-01T02:15:31;97628.81;;;11.21;51.38
78309;BME280;67566;42.022;21.356;2023-04-01T02:18:00;97627.91;;;11.17;51.44
78309;BME280;67566;42.022;21.356;2023-04-01T02:20:26;97631.22;;;11.13;51.69
78309;BME280;67566;42.022;21.356;2023-04-01T02:22:54;97628.44;;;11.10;50.97
78309;BME280;67566;42.022;21.356;2023-04-01T02:25:27;97634.88;;;11.09;51.95
78309;BME280;67566;42.022;21.356;2023-04-01T02:27:55;97630.66;;;11.08;51.26
78309;BME280;67566;42.022;21.356;2023-04-01T02:30:22;97625.97;;;11.05;51.44
78309;BME280;67566;42.022;21.356;2023-04-01T02:32:48;97628.19;;;11.03;52.21
78309;BME280;67566;42.022;21.356;2023-04-01T02:35:16;97615.97;;;11.02;52.29
78309;BME280;67566;42.022;21.356;2023-04-01T02:37:43;97616.94;;;10.97;52.00
78309;BME280;67566;42.022;21.356;2023-04-01T02:40:12;97612.16;;;10.90;52.57
78309;BME280;67566;42.022;21.356;2023-04-01T02:42:38;97610.47;;;10.86;52.62
78309;BME280;67566;42.022;21.356;2023-04-01T02:45:05;97608.13;;;10.84;51.64
78309;BME280;67566;42.022;21.356;2023-04-01T02:47:31;97606.56;;;10.83;52.11
78309;BME280;67566;42.022;21.356;2023-04-01T02:49:57;97607.56;;;10.79;52.20
78309;BME280;67566;42.022;21.356;2023-04-01T02:52:26;97609.09;;;10.80;52.00
78309;BME280;67566;42.022;21.356;2023-04-01T02:54:51;97608.66;;;10.77;51.71
78309;BME280;67566;42.022;21.356;2023-04-01T02:57:17;97599.13;;;10.76;51.77
78309;BME280;67566;42.022;21.356;2023-04-01T02:59:42;97589.56;;;10.75;51.70
78309;BME280;67566;42.022;21.356;2023-04-01T03:02:08;97590.66;;;10.74;51.67
78309;BME280;67566;42.022;21.356;2023-04-01T03:04:33;97588.34;;;10.73;51.68
78309;BME280;67566;42.022;21.356;2023-04-01T03:06:59;97581.47;;;10.72;51.72
78309;BME280;67566;42.022;21.356;2023-04-01T03:09:25;97580.69;;;10.71;51.69
78309;BME280;67566;42.022;21.356;2023-04-01T03:11:50;97582.09;;;10.69;52.48
78309;BME280;67566;42.022;21.356;2023-04-01T03:14:16;97569.09;;;10.67;52.79
78309;BME280;67566;42.022;21.356;2023-04-01T03:16:41;97570.88;;;10.63;52.04
78309;BME280;67566;42.022;21.356;2023-04-01T03:19:07;97579.50;;;10.60;53.14
78309;BME280;67566;42.022;21.356;2023-04-01T03:21:32;97577.03;;;10.55;53.09
78309;BME280;67566;42.022;21.356;2023-04-01T03:23:58;97567.06;;;10.52;53.30
78309;BME280;67566;42.022;21.356;2023-04-01T03:26:24;97557.84;;;10.49;52.95
78309;BME280;67566;42.022;21.356;2023-04-01T03:28:49;97564.91;;;10.45;53.34
78309;BME280;67566;42.022;21.356;2023-04-01T03:31:15;97571.19;;;10.41;53.18
78309;BME280;67566;42.022;21.356;2023-04-01T03:33:42;97568.59;;;10.32;53.09
78309;BME280;67566;42.022;21.356;2023-04-01T03:36:07;97567.06;;;10.22;53.71
78309;BME280;67566;42.022;21.356;2023-04-01T03:38:34;97561.03;;;10.13;54.21
78309;BME280;67566;42.022;21.356;2023-04-01T03:40:59;97566.84;;;10.06;53.78
78309;BME280;67566;42.022;21.356;2023-04-01T03:43:25;97568.00;;;9.96;54.70
78309;BME280;67566;42.022;21.356;2023-04-01T03:45:51;97562.59;;;9.84;54.87
78309;BME280;67566;42.022;21.356;2023-04-01T03:48:18;97555.13;;;9.77;54.47
78309;BME280;67566;42.022;21.356;2023-04-01T03:50:44;97561.72;;;9.71;55.46
78309;BME280;67566;42.022;21.356;2023-04-01T03:53:10;97565.53;;;9.61;55.19
78309;BME280;67566;42.022;21.356;2023-04-01T03:55:36;97561.00;;;9.53;54.88
78309;BME280;67566;42.022;21.356;2023-04-01T03:58:01;97562.63;;;9.45;55.17
78309;BME280;67566;42.022;21.356;2023-04-01T04:00:28;97563.41;;;9.37;55.67
78309;BME280;67566;42.022;21.356;2023-04-01T04:02:54;97565.50;;;9.14;58.87
78309;BME280;67566;42.022;21.356;2023-04-01T04:05:22;97563.66;;;9.06;57.18
78309;BME280;67566;42.022;21.356;2023-04-01T04:07:48;97550.06;;;8.99;56.67
78309;BME280;67566;42.022;21.356;2023-04-01T04:10:15;97564.44;;;8.98;57.37
78309;BME280;67566;42.022;21.356;2023-04-01T04:12:41;97567.25;;;8.93;57.42
78309;BME280;67566;42.022;21.356;2023-04-01T04:15:07;97564.75;;;8.87;57.43
78309;BME280;67566;42.022;21.356;2023-04-01T04:17:33;97574.75;;;8.82;57.77
78309;BME280;67566;42.022;21.356;2023-04-01T04:19:58;97574.47;;;8.75;58.16
78309;BME280;67566;42.022;21.356;2023-04-01T04:22:24;97557.16;;;8.68;58.08
78309;BME280;67566;42.022;21.356;2023-04-01T04:24:50;97555.41;;;8.64;58.32
78309;BME280;67566;42.022;21.356;2023-04-01T04:27:15;97552.47;;;8.57;58.87
78309;BME280;67566;42.022;21.356;2023-04-01T04:29:40;97545.44;;;8.52;58.64
78309;BME280;67566;42.022;21.356;2023-04-01T04:32:06;97540.91;;;8.53;59.29
78309;BME280;67566;42.022;21.356;2023-04-01T04:34:32;97537.00;;;8.50;59.71
78309;BME280;67566;42.022;21.356;2023-04-01T04:36:57;97534.34;;;8.50;59.57
78309;BME280;67566;42.022;21.356;2023-04-01T04:39:23;97523.59;;;8.55;59.78
78309;BME280;67566;42.022;21.356;2023-04-01T04:41:48;97515.47;;;8.60;59.04
78309;BME280;67566;42.022;21.356;2023-04-01T04:44:14;97518.28;;;8.73;58.74
78309;BME280;67566;42.022;21.356;2023-04-01T04:46:40;97524.00;;;9.01;59.05
78309;BME280;67566;42.022;21.356;2023-04-01T04:49:06;97525.94;;;9.30;57.48
78309;BME280;67566;42.022;21.356;2023-04-01T04:51:31;97526.69;;;9.69;56.57
78309;BME280;67566;42.022;21.356;2023-04-01T04:54:02;97541.56;;;10.21;55.67
78309;BME280;67566;42.022;21.356;2023-04-01T04:56:27;97538.78;;;10.81;54.41
78309;BME280;67566;42.022;21.356;2023-04-01T04:58:53;97547.13;;;11.49;53.49
78309;BME280;67566;42.022;21.356;2023-04-01T05:01:19;97538.69;;;12.09;52.20
78309;BME280;67566;42.022;21.356;2023-04-01T05:03:45;97526.66;;;12.27;50.64
78309;BME280;67566;42.022;21.356;2023-04-01T05:06:12;97508.72;;;12.40;51.07
78309;BME280;67566;42.022;21.356;2023-04-01T05:08:39;97512.25;;;13.01;50.15
78309;BME280;67566;42.022;21.356;2023-04-01T05:11:07;97513.22;;;13.72;48.72
78309;BME280;67566;42.022;21.356;2023-04-01T05:13:36;97501.22;;;14.18;47.45
78309;BME280;67566;42.022;21.356;2023-04-01T05:16:02;97504.44;;;14.07;48.30
78309;BME280;67566;42.022;21.356;2023-04-01T05:18:28;97516.22;;;13.87;47.53
78309;BME280;67566;42.022;21.356;2023-04-01T05:20:54;97508.13;;;13.67;47.50
78309;BME280;67566;42.022;21.356;2023-04-01T05:23:21;97493.47;;;13.29;48.01
78309;BME280;67566;42.022;21.356;2023-04-01T05:25:50;97493.59;;;12.89;48.73
78309;BME280;67566;42.022;21.356;2023-04-01T05:28:18;97502.13;;;12.94;48.19
78309;BME280;67566;42.022;21.356;2023-04-01T05:30:44;97493.91;;;13.31;47.72
78309;BME280;67566;42.022;21.356;2023-04-01T05:33:11;97478.91;;;14.13;46.16
78309;BME280;67566;42.022;21.356;2023-04-01T05:35:37;97458.06;;;16.41;42.62
78309;BME280;67566;42.022;21.356;2023-04-01T05:38:03;97462.75;;;18.74;36.30
78309;BME280;67566;42.022;21.356;2023-04-01T05:40:29;97457.81;;;21.24;33.00
78309;BME280;67566;42.022;21.356;2023-04-01T05:42:55;97458.56;;;19.59;34.34
78309;BME280;67566;42.022;21.356;2023-04-01T05:45:21;97452.75;;;19.57;35.00
78309;BME280;67566;42.022;21.356;2023-04-01T05:47:46;97451.63;;;19.04;35.82
78309;BME280;67566;42.022;21.356;2023-04-01T05:50:12;97456.91;;;18.54;37.01
78309;BME280;67566;42.022;21.356;2023-04-01T05:52:38;97457.78;;;19.51;35.76
78309;BME280;67566;42.022;21.356;2023-04-01T05:55:04;97455.63;;;21.57;32.92
78309;BME280;67566;42.022;21.356;2023-04-01T05:57:29;97444.25;;;24.84;28.47
78309;BME280;67566;42.022;21.356;2023-04-01T05:59:55;97425.28;;;24.97;27.05
78309;BME280;67566;42.022;21.356;2023-04-01T06:02:20;97439.06;;;24.37;28.03
78309;BME280;67566;42.022;21.356;2023-04-01T06:04:46;97453.53;;;27.17;25.58
78309;BME280;67566;42.022;21.356;2023-04-01T06:07:13;97446.03;;;27.91;24.68
78309;BME280;67566;42.022;21.356;2023-04-01T06:09:39;97434.25;;;25.76;26.72
78309;BME280;67566;42.022;21.356;2023-04-01T06:23:26;97451.03;;;33.99;18.06
78309;BME280;67566;42.022;21.356;2023-04-01T06:26:13;97439.56;;;30.49;20.36
78309;BME280;67566;42.022;21.356;2023-04-01T06:31:38;97438.44;;;29.94;21.17
78309;BME280;67566;42.022;21.356;2023-04-01T06:37:05;97437.09;;;36.04;15.02
78309;BME280;67566;42.022;21.356;2023-04-01T06:39:46;97430.50;;;37.62;14.43
78309;BME280;67566;42.022;21.356;2023-04-01T06:42:33;97427.34;;;39.47;12.22
78309;BME280;67566;42.022;21.356;2023-04-01T06:53:59;97388.59;;;41.61;11.47
78309;BME280;67566;42.022;21.356;2023-04-01T06:56:28;97388.91;;;41.36;11.28
78309;BME280;67566;42.022;21.356;2023-04-01T07:04:01;97371.47;;;41.99;10.65
78309;BME280;67566;42.022;21.356;2023-04-01T07:06:40;97360.59;;;42.09;10.35
78309;BME280;67566;42.022;21.356;2023-04-01T07:09:12;97355.78;;;41.75;10.46
78309;BME280;67566;42.022;21.356;2023-04-01T07:11:40;97335.34;;;38.96;12.48
78309;BME280;67566;42.022;21.356;2023-04-01T07:16:48;97338.38;;;41.47;11.69
78309;BME280;67566;42.022;21.356;2023-04-01T07:19:27;97362.66;;;42.08;10.95
78309;BME280;67566;42.022;21.356;2023-04-01T07:22:04;97352.25;;;39.93;11.43
78309;BME280;67566;42.022;21.356;2023-04-01T07:24:36;97346.69;;;36.23;13.02
78309;BME280;67566;42.022;21.356;2023-04-01T07:27:08;97343.59;;;34.82;14.62
78309;BME280;67566;42.022;21.356;2023-04-01T07:29:34;97344.28;;;38.14;13.41
78309;BME280;67566;42.022;21.356;2023-04-01T07:32:16;97340.38;;;38.97;11.40
78309;BME280;67566;42.022;21.356;2023-04-01T07:37:45;97326.44;;;41.12;10.58
78309;BME280;67566;42.022;21.356;2023-04-01T07:58:52;97291.69;;;40.87;10.27
78309;BME280;67566;42.022;21.356;2023-04-01T08:07:11;97259.47;;;35.06;14.32
78309;BME280;67566;42.022;21.356;2023-04-01T08:09:48;97257.28;;;38.44;12.24
78309;BME280;67566;42.022;21.356;2023-04-01T08:20:32;97246.06;;;33.90;15.23
78309;BME280;67566;42.022;21.356;2023-04-01T08:26:13;97246.72;;;29.78;19.88
78309;BME280;67566;42.022;21.356;2023-04-01T08:31:16;97256.47;;;28.40;21.62
78309;BME280;67566;42.022;21.356;2023-04-01T08:33:46;97253.94;;;26.64;23.35
78309;BME280;67566;42.022;21.356;2023-04-01T08:36:17;97248.91;;;25.59;24.63
78309;BME280;67566;42.022;21.356;2023-04-01T08:39:06;97245.91;;;24.69;25.80
78309;BME280;67566;42.022;21.356;2023-04-01T08:41:58;97243.69;;;24.64;25.53
78309;BME280;67566;42.022;21.356;2023-04-01T08:55:43;97238.78;;;23.53;27.70
78309;BME280;67566;42.022;21.356;2023-04-01T09:20:08;97221.78;;;19.45;34.59
78309;BME280;67566;42.022;21.356;2023-04-01T09:23:15;97229.22;;;19.19;34.75
78309;BME280;67566;42.022;21.356;2023-04-01T09:40:14;97286.56;;;17.80;43.63
78309;BME280;67566;42.022;21.356;2023-04-01T09:57:15;97274.00;;;18.30;45.54
78309;BME280;67566;42.022;21.356;2023-04-01T10:10:15;97257.38;;;19.08;43.93
78309;BME280;67566;42.022;21.356;2023-04-01T10:30:05;97254.81;;;22.64;36.13
78309;BME280;67566;42.022;21.356;2023-04-01T10:47:09;97245.63;;;23.02;34.17
78309;BME280;67566;42.022;21.356;2023-04-01T10:55:36;97225.69;;;23.68;33.46
78309;BME280;67566;42.022;21.356;2023-04-01T10:58:14;97223.19;;;23.58;34.25
78309;BME280;67566;42.022;21.356;2023-04-01T11:06:54;97223.00;;;23.28;34.04
78309;BME280;67566;42.022;21.356;2023-04-01T11:31:36;97207.75;;;24.86;30.27
78309;BME280;67566;42.022;21.356;2023-04-01T11:43:01;97214.94;;;24.47;29.03
78309;BME280;67566;42.022;21.356;2023-04-01T11:45:40;97203.25;;;24.17;28.69
78309;BME280;67566;42.022;21.356;2023-04-01T12:02:35;97236.81;;;22.50;31.81
78309;BME280;67566;42.022;21.356;2023-04-01T12:05:28;97257.47;;;21.90;31.83
78309;BME280;67566;42.022;21.356;2023-04-01T12:10:39;97309.38;;;20.74;36.68
78309;BME280;67566;42.022;21.356;2023-04-01T12:21:32;97315.59;;;20.74;38.34
78309;BME280;67566;42.022;21.356;2023-04-01T12:24:42;97320.38;;;21.01;37.87
78309;BME280;67566;42.022;21.356;2023-04-01T12:30:10;97290.34;;;21.61;36.46
78309;BME280;67566;42.022;21.356;2023-04-01T12:41:03;97245.53;;;21.22;36.55
78309;BME280;67566;42.022;21.356;2023-04-01T12:43:58;97241.22;;;20.93;36.95
78309;BME280;67566;42.022;21.356;2023-04-01T12:46:37;97216.34;;;20.68;36.42
78309;BME280;67566;42.022;21.356;2023-04-01T12:52:09;97213.16;;;20.31;36.95
78309;BME280;67566;42.022;21.356;2023-04-01T12:57:57;97204.50;;;20.02;37.09
78309;BME280;67566;42.022;21.356;2023-04-01T13:00:48;97208.16;;;19.74;37.47
78309;BME280;67566;42.022;21.356;2023-04-01T13:17:10;97201.28;;;19.58;34.87
78309;BME280;67566;42.022;21.356;2023-04-01T13:19:40;97197.09;;;19.50;35.92
78309;BME280;67566;42.022;21.356;2023-04-01T13:24:59;97187.47;;;19.46;35.80
78309;BME280;67566;42.022;21.356;2023-04-01T13:27:34;97186.25;;;19.57;34.78
78309;BME280;67566;42.022;21.356;2023-04-01T13:33:12;97190.81;;;19.68;32.59
78309;BME280;67566;42.022;21.356;2023-04-01T13:38:41;97190.06;;;19.63;31.04
78309;BME280;67566;42.022;21.356;2023-04-01T13:43:48;97199.81;;;19.47;30.44
78309;BME280;67566;42.022;21.356;2023-04-01T13:49:03;97207.19;;;19.32;30.76
78309;BME280;67566;42.022;21.356;2023-04-01T14:11:21;97212.00;;;19.76;29.47
78309;BME280;67566;42.022;21.356;2023-04-01T14:34:05;97224.22;;;20.89;28.27
78309;BME280;67566;42.022;21.356;2023-04-01T14:41:48;97224.09;;;21.04;26.68
78309;BME280;67566;42.022;21.356;2023-04-01T14:49:42;97236.88;;;21.00;26.84
78309;BME280;67566;42.022;21.356;2023-04-01T14:52:26;97230.78;;;20.92;26.76
78309;BME280;67566;42.022;21.356;2023-04-01T14:54:54;97237.75;;;20.89;26.65
78309;BME280;67566;42.022;21.356;2023-04-01T14:57:31;97238.25;;;20.77;26.04
78309;BME280;67566;42.022;21.356;2023-04-01T15:00:13;97237.63;;;20.66;25.79
78309;BME280;67566;42.022;21.356;2023-04-01T15:02:56;97253.88;;;20.59;25.98
78309;BME280;67566;42.022;21.356;2023-04-01T15:21:31;97252.41;;;19.94;26.53
78309;BME280;67566;42.022;21.356;2023-04-01T15:43:47;97284.28;;;19.40;26.87
78309;BME280;67566;42.022;21.356;2023-04-01T16:11:25;97344.44;;;18.33;27.97
78309;BME280;67566;42.022;21.356;2023-04-01T16:20:15;97358.22;;;18.02;27.97
78309;BME280;67566;42.022;21.356;2023-04-01T16:23:01;97360.84;;;17.84;28.09
78309;BME280;67566;42.022;21.356;2023-04-01T16:25:39;97373.44;;;17.69;28.56
78309;BME280;67566;42.022;21.356;2023-04-01T16:31:04;97380.25;;;17.49;29.19
78309;BME280;67566;42.022;21.356;2023-04-01T16:33:35;97379.78;;;17.32;29.56
78309;BME280;67566;42.022;21.356;2023-04-01T16:36:10;97388.97;;;17.28;29.22
78309;BME280;67566;42.022;21.356;2023-04-01T16:41:24;97398.03;;;17.05;29.53
78309;BME280;67566;42.022;21.356;2023-04-01T16:46:43;97396.19;;;16.72;30.26
78309;BME280;67566;42.022;21.356;2023-04-01T16:54:27;97414.72;;;16.43;30.06
78309;BME280;67566;42.022;21.356;2023-04-01T16:59:37;97421.72;;;16.17;30.90
78309;BME280;67566;42.022;21.356;2023-04-01T17:13:13;97466.69;;;15.67;31.54
78309;BME280;67566;42.022;21.356;2023-04-01T17:21:10;97516.09;;;15.62;37.47
78309;BME280;67566;42.022;21.356;2023-04-01T17:23:44;97508.75;;;15.59;39.78
78309;BME280;67566;42.022;21.356;2023-04-01T17:45:24;97553.88;;;14.49;44.55
78309;BME280;67566;42.022;21.356;2023-04-01T17:48:03;97558.13;;;14.34;45.12
78309;BME280;67566;42.022;21.356;2023-04-01T17:56:33;97568.63;;;13.88;46.20
78309;BME280;67566;42.022;21.356;2023-04-01T17:59:20;97581.31;;;13.91;46.88
78309;BME280;67566;42.022;21.356;2023-04-01T18:05:17;97592.06;;;13.78;47.01
78309;BME280;67566;42.022;21.356;2023-04-01T18:08:29;97578.44;;;13.68;47.23
78309;BME280;67566;42.022;21.356;2023-04-01T18:11:05;97581.91;;;13.52;47.42
78309;BME280;67566;42.022;21.356;2023-04-01T18:21:56;97594.84;;;13.06;48.53
78309;BME280;67566;42.022;21.356;2023-04-01T18:24:30;97599.47;;;12.93;48.26
78309;BME280;67566;42.022;21.356;2023-04-01T18:27:06;97604.25;;;12.88;49.42
78309;BME280;67566;42.022;21.356;2023-04-01T18:29:54;97600.28;;;12.81;49.70
78309;BME280;67566;42.022;21.356;2023-04-01T18:32:32;97604.38;;;12.79;49.25
78309;BME280;67566;42.022;21.356;2023-04-01T18:35:14;97608.53;;;12.76;49.68
78309;BME280;67566;42.022;21.356;2023-04-01T18:43:09;97617.13;;;12.57;49.98
78309;BME280;67566;42.022;21.356;2023-04-01T18:45:40;97618.50;;;12.51;50.22
78309;BME280;67566;42.022;21.356;2023-04-01T18:50:59;97638.75;;;12.40;50.67
78309;BME280;67566;42.022;21.356;2023-04-01T18:53:35;97647.66;;;12.32;51.80
78309;BME280;67566;42.022;21.356;2023-04-01T18:58:58;97670.13;;;12.43;50.88
78309;BME280;67566;42.022;21.356;2023-04-01T19:01:37;97670.22;;;12.34;50.48
78309;BME280;67566;42.022;21.356;2023-04-01T19:06:57;97675.34;;;12.15;51.51
78309;BME280;67566;42.022;21.356;2023-04-01T19:09:30;97686.03;;;12.15;51.62
78309;BME280;67566;42.022;21.356;2023-04-01T19:12:24;97695.91;;;12.02;50.96
78309;BME280;67566;42.022;21.356;2023-04-01T19:20:29;97695.69;;;12.07;51.83
78309;BME280;67566;42.022;21.356;2023-04-01T19:37:08;97719.47;;;11.66;52.23
78309;BME280;67566;42.022;21.356;2023-04-01T19:45:51;97715.91;;;11.29;52.23
78309;BME280;67566;42.022;21.356;2023-04-01T19:54:02;97727.59;;;11.15;53.46
78309;BME280;67566;42.022;21.356;2023-04-01T19:56:36;97717.44;;;11.09;52.79
78309;BME280;67566;42.022;21.356;2023-04-01T20:01:49;97723.75;;;11.04;52.50
78309;BME280;67566;42.022;21.356;2023-04-01T20:04:22;97713.94;;;10.96;52.98
78309;BME280;67566;42.022;21.356;2023-04-01T20:07:17;97712.25;;;10.91;53.59
78309;BME280;67566;42.022;21.356;2023-04-01T20:12:25;97717.19;;;10.81;52.86
78309;BME280;67566;42.022;21.356;2023-04-01T20:15:02;97714.50;;;10.81;53.09
78309;BME280;67566;42.022;21.356;2023-04-01T20:17:40;97722.81;;;10.79;53.02
78309;BME280;67566;42.022;21.356;2023-04-01T20:25:38;97723.16;;;10.77;53.94
78309;BME280;67566;42.022;21.356;2023-04-01T20:28:13;97719.53;;;10.82;54.53
78309;BME280;67566;42.022;21.356;2023-04-01T20:39:30;97732.72;;;10.49;57.11
78309;BME280;67566;42.022;21.356;2023-04-01T21:01:25;97728.84;;;9.81;57.10
78309;BME280;67566;42.022;21.356;2023-04-01T21:04:16;97723.69;;;9.76;57.64
78309;BME280;67566;42.022;21.356;2023-04-01T21:06:56;97733.69;;;9.79;58.04
78309;BME280;67566;42.022;21.356;2023-04-01T21:26:35;97764.78;;;9.96;59.13
78309;BME280;67566;42.022;21.356;2023-04-01T21:34:43;97767.78;;;9.77;58.87
78309;BME280;67566;42.022;21.356;2023-04-01T21:42:46;97770.31;;;9.39;59.01
78309;BME280;67566;42.022;21.356;2023-04-01T21:45:28;97775.94;;;9.29;59.36
78309;BME280;67566;42.022;21.356;2023-04-01T21:48:46;97784.50;;;9.08;62.57
78309;BME280;67566;42.022;21.356;2023-04-01T22:20:44;97811.25;;;8.40;62.72
78309;BME280;67566;42.022;21.356;2023-04-01T22:23:24;97814.53;;;8.37;62.72
78309;BME280;67566;42.022;21.356;2023-04-01T22:26:08;97817.94;;;8.29;62.93
78309;BME280;67566;42.022;21.356;2023-04-01T22:28:48;97829.72;;;8.23;62.73
78309;BME280;67566;42.022;21.356;2023-04-01T22:31:22;97829.84;;;8.18;62.63
78309;BME280;67566;42.022;21.356;2023-04-01T22:34:15;97832.34;;;8.14;63.23
78309;BME280;67566;42.022;21.356;2023-04-01T22:37:18;97839.34;;;8.10;62.72
78309;BME280;67566;42.022;21.356;2023-04-01T22:48:41;97848.81;;;8.02;63.62
78309;BME280;67566;42.022;21.356;2023-04-01T22:56:30;97836.34;;;8.03;64.46
78309;BME280;67566;42.022;21.356;2023-04-01T23:02:08;97846.28;;;7.97;64.21
78309;BME280;67566;42.022;21.356;2023-04-01T23:04:39;97841.94;;;8.01;64.06
78309;BME280;67566;42.022;21.356;2023-04-01T23:10:01;97833.84;;;8.06;64.32
78309;BME280;67566;42.022;21.356;2023-04-01T23:12:28;97839.81;;;8.12;64.17
78309;BME280;67566;42.022;21.356;2023-04-01T23:14:57;97835.50;;;8.16;64.82
78309;BME280;67566;42.022;21.356;2023-04-01T23:17:58;97833.19;;;8.23;64.56
78309;BME280;67566;42.022;21.356;2023-04-01T23:20:34;97839.75;;;8.26;65.42
78309;BME280;67566;42.022;21.356;2023-04-01T23:23:12;97838.66;;;8.27;64.22
78309;BME280;67566;42.022;21.356;2023-04-01T23:35:55;97829.72;;;8.45;65.27
78309;BME280;67566;42.022;21.356;2023-04-01T23:38:24;97828.66;;;8.46;64.54
78309;BME280;67566;42.022;21.356;2023-04-01T23:40:52;97827.25;;;8.49;64.31
78309;BME280;67566;42.022;21.356;2023-04-01T23:43:24;97816.34;;;8.50;64.59
78309;BME280;67566;42.022;21.356;2023-04-01T23:45:51;97813.38;;;8.52;64.58
78309;BME280;67566;42.022;21.356;2023-04-01T23:48:19;97813.38;;;8.52;64.69
78309;BME280;67566;42.022;21.356;2023-04-01T23:50:48;97814.16;;;8.53;64.99
78309;BME280;67566;42.022;21.356;2023-04-01T23:53:21;97814.97;;;8.53;64.68
78309;BME280;67566;42.022;21.356;2023-04-01T23:55:48;97812.31;;;8.53;65.10
78309;BME280;67566;42.022;21.356;2023-04-01T23:58:21;97808.06;;;8.52;64.59
